Fort Severn Airport
CYER : now visible

Airfield :











YOU CAN JOIN US ON...

 
LOGIN :

Register | Disclaimer

   EN    FR    IT 

 









Legend :    VFR   Marginal VFR   IFR   Intensive IFR   Very Intensive IFR
Visi :
Ceiling :
>= 8 km
>= 3000ft
5 to 8 km
1000 to 3000 ft
1500m to 5 km
500 to 1000 ft
800 to 1500m
200 to 500 ft
< 800m
< 200 ft
Symbols :   Thunderstorms  Fog  Heavy snow  Heavy precipitations  Wind > 20 kt






- Airport Elevation : 48 ft
- IATA code : YER


CYER - Fort Severn

CURRENT METAR :
  • 202100Z AUTO 32009KT 9SM -RA OVC013 05/04 A2968 RMK SLP054

EXPIRED METARs :
  • 202008Z AUTO 34008KT 9SM -RA BKN011 OVC020 04/04 A2968 RMK SLP053
  • 201923Z AUTO 35011KT 9SM -RA BKN008 OVC018 03/03 A2967 RMK SLP048
  • 201913Z AUTO 35010G16KT 9SM -RA SCT008 OVC016 03/03 A2967 RMK SLP048
  • 201900Z AUTO 33009KT 9SM -RA BKN008 OVC018 03/02 A2967 RMK SLP048
  • 201850Z AUTO 34010KT 9SM -RA BKN008 OVC018 03/02 A2966 RMK SLP047

Expired Forecast.
CZWG FIR / North America



MET'MAP, your aeronautical weather chart ! - Copyright ORBIFLY December 2007 - Disclaimer

ORBIFLY MET'MAP TEAM :

Programming & Development : Alexandra Zaïnal
Concept & original design : Baudouin d'Aumeries
Assistance for programming : Marc-Olivier Méhu
Technical & hardware support : Manuel Goepfert

Contact : metmap@orbifly.com




SOURCES & CREDITS :

   NOAA       Earth
Advisory